OEJN/JED METAR and TAF weather

Enter ICAO airport designator
Station Type Date Time Source
OEJN METAR 2020/09/23 18:00 UTC NOAA

OEJN 231800Z 33010KT CAVOK 33/24 Q1004 NOSIG


Station Type Date Time Source
OEJN Decoded METAR 2020/09/23 18:00 UTC NOAA

Jeddah King Abdul Aziz International Airport , Saudi Arabia (OEJN) 21-42N 039-11E 17M
Sep 23, 2020 - 02:00 PM EDT / 2020.09.23 1800 UTC
Wind: from the NNW (330 degrees) at 12 MPH (10 KT):0
Visibility: greater than 7 mile(s):0
Temperature: 91 F (33 C)
Heat index: 101.5 F (38.6 C):1
Dew Point: 75 F (24 C)
Relative Humidity: 59%
Pressure (altimeter): 29.65 in. Hg (1004 hPa)
ob: OEJN 231800Z 33010KT CAVOK 33/24 Q1004 NOSIG
cycle: 18

Station Type Date Time Source
OEJN TAF 2020/09/23 18:06 UTC NOAA

TAF OEJN 231700Z 2318/2424 33010KT CAVOK
BECMG 2400/2402 VRB03KT
BECMG 2406/2408 32015KT

Example: see airport list